createdAt,value
2022-11-05T00:01:01.126Z,8.90
2022-11-05T00:04:00.374Z,8.90
2022-11-05T00:07:06.143Z,8.90
2022-11-05T00:09:46.262Z,8.90
2022-11-05T00:12:52.148Z,8.90
2022-11-05T00:15:53.423Z,8.90
2022-11-05T00:18:40.176Z,8.90
2022-11-05T00:21:39.114Z,8.90
2022-11-05T00:24:45.222Z,8.80
2022-11-05T00:27:39.153Z,8.70
2022-11-05T00:30:31.155Z,8.70
2022-11-05T00:33:19.238Z,8.60
2022-11-05T00:36:08.265Z,8.50
2022-11-05T00:42:36.208Z,8.40
2022-11-05T00:45:23.224Z,8.40
2022-11-05T00:48:23.077Z,8.30
2022-11-05T00:51:09.208Z,8.30
2022-11-05T00:53:49.261Z,8.30
2022-11-05T00:56:36.364Z,8.30
2022-11-05T00:59:16.299Z,8.20
2022-11-05T01:02:03.406Z,8.20
2022-11-05T01:04:43.279Z,8.20
2022-11-05T01:07:30.249Z,8.30
2022-11-05T01:10:11.318Z,8.30
2022-11-05T01:12:58.290Z,8.20
2022-11-05T01:15:38.330Z,8.10
2022-11-05T01:18:27.266Z,8.10
2022-11-05T01:21:15.848Z,8.10
2022-11-05T01:24:02.470Z,8.10
2022-11-05T01:26:42.354Z,8.10
2022-11-05T01:29:36.360Z,8.20
2022-11-05T01:32:16.769Z,8.20
2022-11-05T01:38:03.941Z,8.30
2022-11-05T01:40:50.364Z,8.30
2022-11-05T01:43:56.697Z,8.30
2022-11-05T01:46:44.291Z,8.30
2022-11-05T01:49:40.363Z,8.30
2022-11-05T01:52:20.316Z,8.30
2022-11-05T01:55:09.388Z,8.20
2022-11-05T01:57:49.322Z,8.20
2022-11-05T02:00:37.052Z,8.10
2022-11-05T02:03:18.366Z,8.10
2022-11-05T02:06:01.230Z,8.10
2022-11-05T02:09:02.348Z,8.20
2022-11-05T02:11:49.339Z,8.20
2022-11-05T02:14:29.405Z,8.20
2022-11-05T02:17:22.362Z,8.20
2022-11-05T02:20:25.522Z,8.30
2022-11-05T02:23:43.491Z,8.20
2022-11-05T02:26:29.446Z,8.10
2022-11-05T02:29:45.401Z,8.00
2022-11-05T02:33:04.519Z,8.00
2022-11-05T02:36:02.567Z,8.00
2022-11-05T02:38:59.384Z,8.00
2022-11-05T02:42:27.521Z,8.00
2022-11-05T02:45:14.427Z,8.00
2022-11-05T02:48:04.172Z,8.00
2022-11-05T02:51:11.425Z,8.00
2022-11-05T02:54:15.467Z,8.00
2022-11-05T02:56:59.429Z,7.90
2022-11-05T02:59:50.622Z,8.00
2022-11-05T03:02:30.498Z,8.00
2022-11-05T03:05:17.553Z,8.00
2022-11-05T03:08:04.443Z,8.00
2022-11-05T03:11:20.540Z,7.90
2022-11-05T03:14:27.468Z,7.90
2022-11-05T03:17:28.803Z,7.90
2022-11-05T03:20:19.484Z,7.90
2022-11-05T03:23:27.552Z,7.90
2022-11-05T03:26:26.506Z,8.00
2022-11-05T03:29:17.453Z,8.10
2022-11-05T03:32:01.773Z,8.20
2022-11-05T03:34:56.518Z,8.20
2022-11-05T03:37:50.540Z,8.30
2022-11-05T03:40:36.775Z,8.30
2022-11-05T03:43:23.508Z,8.30
2022-11-05T03:46:16.872Z,8.40
2022-11-05T03:49:06.529Z,8.50
2022-11-05T03:52:06.446Z,8.50
2022-11-05T03:54:53.512Z,8.60
2022-11-05T03:57:38.565Z,8.60
2022-11-05T04:00:26.515Z,8.60
2022-11-05T04:03:13.784Z,8.60
2022-11-05T04:06:14.114Z,8.50
2022-11-05T04:09:19.563Z,8.40
2022-11-05T04:12:18.510Z,8.40
2022-11-05T04:15:32.361Z,8.40
2022-11-05T04:18:12.625Z,8.40
2022-11-05T04:21:18.577Z,8.40
2022-11-05T04:24:10.793Z,8.40
2022-11-05T04:26:57.600Z,8.40
2022-11-05T04:30:09.730Z,8.40
2022-11-05T04:33:05.613Z,8.40
2022-11-05T04:35:54.608Z,8.40
2022-11-05T04:38:41.615Z,8.40
2022-11-05T04:41:23.698Z,8.40
2022-11-05T04:44:10.593Z,8.40
2022-11-05T04:46:50.659Z,8.50
2022-11-05T04:49:44.690Z,8.50
2022-11-05T04:52:24.743Z,8.60
2022-11-05T04:55:11.668Z,8.60
2022-11-05T04:58:04.652Z,8.60
2022-11-05T05:00:51.823Z,8.60
2022-11-05T05:03:31.695Z,8.50
2022-11-05T05:06:12.204Z,8.50
2022-11-05T05:09:00.676Z,8.50
2022-11-05T05:11:47.744Z,8.50
2022-11-05T05:14:27.660Z,8.40
2022-11-05T05:17:14.722Z,8.40
2022-11-05T05:20:17.670Z,8.40
2022-11-05T05:22:58.169Z,8.30
2022-11-05T05:25:44.652Z,8.20
2022-11-05T05:28:39.699Z,8.00
2022-11-05T05:31:27.698Z,7.90
2022-11-05T05:34:07.739Z,7.90
2022-11-05T05:36:54.685Z,7.90
2022-11-05T05:39:34.720Z,7.90
2022-11-05T05:42:21.705Z,7.90
2022-11-05T05:45:01.748Z,8.00
2022-11-05T05:47:48.681Z,8.00
2022-11-05T05:50:28.967Z,8.00
2022-11-05T05:53:19.693Z,8.10
2022-11-05T05:56:00.872Z,8.20
2022-11-05T05:58:48.718Z,8.20
2022-11-05T06:01:28.842Z,8.10
2022-11-05T06:04:17.740Z,8.20
2022-11-05T06:06:57.782Z,8.20
2022-11-05T06:09:44.766Z,8.20
2022-11-05T06:12:24.818Z,8.20
2022-11-05T06:15:12.749Z,8.10
2022-11-05T06:17:52.866Z,8.10
2022-11-05T06:20:39.810Z,8.00
2022-11-05T06:23:19.828Z,8.10
2022-11-05T06:26:11.797Z,8.10
2022-11-05T06:28:58.791Z,8.10
2022-11-05T06:31:45.917Z,8.10
2022-11-05T06:34:28.846Z,8.10
2022-11-05T06:37:13.613Z,8.20
2022-11-05T06:40:03.816Z,8.20
2022-11-05T06:42:51.942Z,8.20
2022-11-05T06:45:31.859Z,8.10
2022-11-05T06:48:18.898Z,8.10
2022-11-05T06:50:58.959Z,8.00
2022-11-05T06:53:39.439Z,8.00
2022-11-05T06:56:25.816Z,8.10
2022-11-05T06:59:06.368Z,8.10
2022-11-05T07:01:52.853Z,8.20
2022-11-05T07:04:40.010Z,8.30
2022-11-05T07:07:19.833Z,8.30
2022-11-05T07:10:06.891Z,8.50
2022-11-05T07:12:46.915Z,8.60
2022-11-05T07:15:33.935Z,8.60
2022-11-05T07:18:13.924Z,8.80
2022-11-05T07:21:00.929Z,8.80
2022-11-05T07:23:40.929Z,8.90
2022-11-05T07:26:33.366Z,9.10
2022-11-05T07:29:21.120Z,9.10
2022-11-05T07:32:00.892Z,9.20
2022-11-05T07:34:41.465Z,9.20
2022-11-05T07:37:27.893Z,9.20
2022-11-05T07:40:09.499Z,9.20
2022-11-05T07:43:00.893Z,9.10
2022-11-05T07:45:47.923Z,9.20
2022-11-05T07:48:27.902Z,9.30
2022-11-05T07:51:14.955Z,9.40
2022-11-05T07:53:54.930Z,9.50
2022-11-05T07:56:28.669Z,9.60
2022-11-05T07:58:55.448Z,9.70
2022-11-05T08:01:22.460Z,9.90
2022-11-05T08:03:49.575Z,10.00
2022-11-05T08:06:16.608Z,10.10
2022-11-05T08:08:43.498Z,10.20
2022-11-05T08:11:12.284Z,10.20
2022-11-05T08:13:39.242Z,10.20
2022-11-05T08:16:06.603Z,10.20
2022-11-05T08:18:34.023Z,10.20
2022-11-05T08:21:03.252Z,10.30
2022-11-05T08:23:31.405Z,10.40
2022-11-05T08:25:58.626Z,10.50
2022-11-05T08:28:26.422Z,10.50
2022-11-05T08:30:55.340Z,10.60
2022-11-05T08:33:24.002Z,10.70
2022-11-05T08:35:51.280Z,10.70
2022-11-05T08:38:19.680Z,10.90
2022-11-05T08:40:55.583Z,11.00
2022-11-05T08:43:22.669Z,11.10
2022-11-05T08:45:49.687Z,11.10
2022-11-05T08:48:18.237Z,11.00
2022-11-05T08:50:46.836Z,10.90
2022-11-05T08:53:14.793Z,11.00
2022-11-05T08:55:42.098Z,11.00
2022-11-05T08:58:15.316Z,11.00
2022-11-05T09:00:42.926Z,11.10
2022-11-05T09:03:10.819Z,11.20
2022-11-05T09:05:40.240Z,11.20
2022-11-05T09:08:15.421Z,11.20
2022-11-05T09:10:43.006Z,11.30
2022-11-05T09:13:16.512Z,11.40
2022-11-05T09:15:45.468Z,11.50
2022-11-05T09:18:14.066Z,11.50
2022-11-05T09:20:41.199Z,11.60
2022-11-05T09:23:09.301Z,11.60
2022-11-05T09:25:36.285Z,11.80
2022-11-05T09:28:16.141Z,11.90
2022-11-05T09:30:46.640Z,12.00
2022-11-05T09:33:14.388Z,12.20
2022-11-05T09:35:42.182Z,12.50
2022-11-05T09:38:09.294Z,12.80
2022-11-05T09:41:02.543Z,13.00
2022-11-05T09:43:35.470Z,13.20
2022-11-05T09:46:21.535Z,13.50
2022-11-05T09:48:53.821Z,13.80
2022-11-05T09:51:24.055Z,14.30
2022-11-05T09:53:51.429Z,15.00
2022-11-05T09:56:28.305Z,16.10
2022-11-05T09:59:33.663Z,16.80
2022-11-05T10:02:23.577Z,17.00
2022-11-05T10:04:54.686Z,16.90
2022-11-05T10:07:25.489Z,16.60
2022-11-05T10:09:57.790Z,17.20
2022-11-05T10:12:36.815Z,17.20
2022-11-05T10:15:17.918Z,17.00
2022-11-05T10:17:51.486Z,16.80
2022-11-05T10:20:38.974Z,16.70
2022-11-05T10:23:20.940Z,16.40
2022-11-05T10:25:56.577Z,16.30
2022-11-05T10:28:29.411Z,16.20
2022-11-05T10:30:59.423Z,16.10
2022-11-05T10:33:50.060Z,16.10
2022-11-05T10:36:26.213Z,16.10
2022-11-05T10:38:57.034Z,16.10
2022-11-05T10:42:01.763Z,16.10
2022-11-05T10:44:34.883Z,16.00
2022-11-05T10:47:27.101Z,15.90
2022-11-05T10:50:03.474Z,15.70
2022-11-05T10:53:00.533Z,15.60
2022-11-05T10:55:29.681Z,15.50
2022-11-05T10:58:13.549Z,15.20
2022-11-05T11:00:41.028Z,14.80
2022-11-05T11:03:35.705Z,14.50
2022-11-05T11:06:29.143Z,14.40
2022-11-05T11:09:01.883Z,14.40
2022-11-05T11:11:41.155Z,14.40
2022-11-05T11:14:13.855Z,14.40
2022-11-05T11:16:43.090Z,14.50
2022-11-05T11:19:28.637Z,14.60
2022-11-05T11:22:04.567Z,14.70
2022-11-05T11:24:42.564Z,14.80
2022-11-05T11:27:22.245Z,15.00
2022-11-05T11:30:00.749Z,15.10
2022-11-05T11:32:34.064Z,15.20
2022-11-05T11:35:01.296Z,15.20
2022-11-05T11:37:41.785Z,15.10
2022-11-05T11:40:19.266Z,15.00
2022-11-05T11:42:50.879Z,15.10
2022-11-05T11:45:44.819Z,15.10
2022-11-05T11:48:18.173Z,15.10
2022-11-05T11:50:47.277Z,15.00
2022-11-05T11:53:20.251Z,15.00
2022-11-05T11:55:57.281Z,15.00
2022-11-05T11:58:35.681Z,14.90
2022-11-05T12:01:22.743Z,14.80
2022-11-05T12:04:10.299Z,14.80
2022-11-05T12:07:10.454Z,14.90
2022-11-05T12:10:02.253Z,14.80
2022-11-05T12:13:08.880Z,14.60
2022-11-05T12:15:37.270Z,14.60
2022-11-05T12:18:08.083Z,14.60
2022-11-05T12:20:55.390Z,14.60
2022-11-05T12:23:42.817Z,14.40
2022-11-05T12:26:19.271Z,14.40
2022-11-05T12:29:35.906Z,14.40
2022-11-05T12:32:25.437Z,14.40
2022-11-05T12:35:08.157Z,14.50
2022-11-05T12:37:47.813Z,14.50
2022-11-05T12:40:38.702Z,14.30
2022-11-05T12:43:17.823Z,14.10
2022-11-05T12:45:58.610Z,14.00
2022-11-05T12:48:58.434Z,13.80
2022-11-05T12:51:34.197Z,13.70
2022-11-05T12:54:15.049Z,13.50
2022-11-05T12:56:54.227Z,13.50
2022-11-05T12:59:46.062Z,13.40
2022-11-05T13:02:49.849Z,13.30
2022-11-05T13:05:40.005Z,13.30
2022-11-05T13:08:07.405Z,13.40
2022-11-05T13:10:51.877Z,13.50
2022-11-05T13:13:32.425Z,13.70
2022-11-05T13:16:10.436Z,13.80
2022-11-05T13:18:48.510Z,14.00
2022-11-05T13:21:17.503Z,14.10
2022-11-05T13:23:53.496Z,14.20
2022-11-05T13:26:31.319Z,14.20
2022-11-05T13:29:09.261Z,14.10
2022-11-05T13:31:46.983Z,14.10
2022-11-05T13:34:13.757Z,14.00
2022-11-05T13:37:18.927Z,14.00
2022-11-05T13:39:56.392Z,14.30
2022-11-05T13:42:31.762Z,14.70
2022-11-05T13:45:01.416Z,14.80
2022-11-05T13:47:40.246Z,14.90
2022-11-05T13:50:25.678Z,14.80
2022-11-05T13:53:11.117Z,14.70
2022-11-05T13:55:59.085Z,14.70
2022-11-05T13:58:53.713Z,14.60
2022-11-05T14:01:29.227Z,14.40
2022-11-05T14:03:56.899Z,14.20
2022-11-05T14:06:31.044Z,14.00
2022-11-05T14:09:03.037Z,13.80
2022-11-05T14:11:34.799Z,13.70
2022-11-05T14:14:06.687Z,13.50
2022-11-05T14:16:51.441Z,13.40
2022-11-05T14:19:18.177Z,13.10
2022-11-05T14:21:49.510Z,12.90
2022-11-05T14:24:42.698Z,12.60
2022-11-05T14:27:10.288Z,12.30
2022-11-05T14:29:39.608Z,12.20
2022-11-05T14:32:21.529Z,12.10
2022-11-05T14:35:12.703Z,12.20
2022-11-05T14:37:54.764Z,12.20
2022-11-05T14:40:21.459Z,12.30
2022-11-05T14:42:54.665Z,12.40
2022-11-05T14:45:40.677Z,12.40
2022-11-05T14:48:29.797Z,12.40
2022-11-05T14:50:56.771Z,12.40
2022-11-05T14:53:39.462Z,12.30
2022-11-05T14:56:18.054Z,12.20
2022-11-05T14:58:46.300Z,12.00
2022-11-05T15:01:15.919Z,12.00
2022-11-05T15:03:46.187Z,11.90
2022-11-05T15:06:22.385Z,11.80
2022-11-05T15:08:49.173Z,11.80
2022-11-05T15:11:49.909Z,11.80
2022-11-05T15:14:21.703Z,11.70
2022-11-05T15:16:54.645Z,11.70
2022-11-05T15:19:36.946Z,11.60
2022-11-05T15:22:10.067Z,11.60
2022-11-05T15:24:37.434Z,11.60
2022-11-05T15:27:15.985Z,11.60
2022-11-05T15:29:43.024Z,11.50
2022-11-05T15:32:23.415Z,11.60
2022-11-05T15:34:52.322Z,11.60
2022-11-05T15:37:25.975Z,11.70
2022-11-05T15:39:55.057Z,11.60
2022-11-05T15:42:27.099Z,11.40
2022-11-05T15:44:56.341Z,11.30
2022-11-05T15:47:26.175Z,11.20
2022-11-05T15:50:14.964Z,11.10
2022-11-05T15:52:53.891Z,11.00
2022-11-05T15:55:24.396Z,11.00
2022-11-05T15:58:00.998Z,10.90
2022-11-05T16:00:30.495Z,10.90
2022-11-05T16:03:08.577Z,10.80
2022-11-05T16:05:41.562Z,10.80
2022-11-05T16:08:19.967Z,10.60
2022-11-05T16:10:50.254Z,10.50
2022-11-05T16:13:40.019Z,10.50
2022-11-05T16:16:15.924Z,10.50
2022-11-05T16:18:44.420Z,10.40
2022-11-05T16:21:18.178Z,10.40
2022-11-05T16:24:05.371Z,10.40
2022-11-05T16:29:32.242Z,10.20
2022-11-05T16:32:01.953Z,10.10
2022-11-05T16:34:32.679Z,10.00
2022-11-05T16:37:00.191Z,9.90
2022-11-05T16:39:26.976Z,9.90
2022-11-05T16:41:53.769Z,9.80
2022-11-05T16:44:21.189Z,9.70
2022-11-05T16:46:49.142Z,9.50
2022-11-05T16:49:17.499Z,9.50
2022-11-05T16:51:44.428Z,9.50
2022-11-05T16:54:11.202Z,9.50
2022-11-05T16:56:39.886Z,9.50
2022-11-05T16:59:09.407Z,9.40
2022-11-05T17:01:39.297Z,9.30
2022-11-05T17:04:06.145Z,9.40
2022-11-05T17:06:32.931Z,9.40
2022-11-05T17:08:59.637Z,9.40
2022-11-05T17:11:26.369Z,9.50
2022-11-05T17:13:53.144Z,9.50
2022-11-05T17:16:19.880Z,9.50
2022-11-05T17:18:46.709Z,9.60
2022-11-05T17:21:14.154Z,9.60
2022-11-05T17:23:40.898Z,9.60
2022-11-05T17:26:12.212Z,9.60
2022-11-05T17:28:40.423Z,9.40
2022-11-05T17:31:09.740Z,9.40
2022-11-05T17:33:36.710Z,9.30
2022-11-05T17:36:13.540Z,9.30
2022-11-05T17:38:40.449Z,9.30
2022-11-05T17:41:15.245Z,9.30
2022-11-05T17:43:42.180Z,9.30
2022-11-05T17:46:11.273Z,9.30
2022-11-05T17:48:38.831Z,9.30
2022-11-05T17:51:09.573Z,9.30
2022-11-05T17:53:36.630Z,9.40
2022-11-05T17:56:26.162Z,9.30
2022-11-05T17:58:56.007Z,9.40
2022-11-05T18:01:29.304Z,9.40
2022-11-05T18:03:56.265Z,9.40
2022-11-05T18:06:23.120Z,9.40
2022-11-05T18:08:49.960Z,9.30
2022-11-05T18:11:17.071Z,9.30
2022-11-05T18:13:43.935Z,9.20
2022-11-05T18:16:10.862Z,9.10
2022-11-05T18:18:37.804Z,9.10
2022-11-05T18:21:04.686Z,9.00
2022-11-05T18:23:31.645Z,9.00
2022-11-05T18:25:58.488Z,8.90
2022-11-05T18:28:25.502Z,8.90
2022-11-05T18:30:52.373Z,8.80
2022-11-05T18:33:19.114Z,8.70
2022-11-05T18:35:46.241Z,8.60
2022-11-05T18:38:13.123Z,8.50
2022-11-05T18:40:39.947Z,8.40
2022-11-05T18:43:06.769Z,8.40
2022-11-05T18:45:33.691Z,8.30
2022-11-05T18:48:01.553Z,8.20
2022-11-05T18:50:29.250Z,8.20
2022-11-05T18:52:56.430Z,8.10
2022-11-05T18:55:24.328Z,8.00
2022-11-05T18:57:51.149Z,8.00
2022-11-05T19:00:18.152Z,8.00
2022-11-05T19:02:45.090Z,8.00
2022-11-05T19:05:28.513Z,8.00
2022-11-05T19:07:56.500Z,8.00
2022-11-05T19:10:23.299Z,8.00
2022-11-05T19:12:50.053Z,8.00
2022-11-05T19:15:17.199Z,8.10
2022-11-05T19:17:44.017Z,8.10
2022-11-05T19:20:11.222Z,8.20
2022-11-05T19:22:38.097Z,8.20
2022-11-05T19:25:05.660Z,8.30
2022-11-05T19:27:32.486Z,8.30
2022-11-05T19:29:59.291Z,8.30
2022-11-05T19:32:26.109Z,8.30
2022-11-05T19:34:52.986Z,8.30
2022-11-05T19:37:19.924Z,8.30
2022-11-05T19:39:46.736Z,8.30
2022-11-05T19:42:22.289Z,8.30
2022-11-05T19:44:49.105Z,8.30
2022-11-05T19:47:15.930Z,8.30
2022-11-05T19:49:42.677Z,8.20
2022-11-05T19:52:09.483Z,8.20
2022-11-05T19:54:37.616Z,8.20
2022-11-05T19:57:06.271Z,8.20
2022-11-05T19:59:33.074Z,8.10
2022-11-05T20:01:59.927Z,8.00
2022-11-05T20:04:26.921Z,8.00
2022-11-05T20:06:53.701Z,7.90
2022-11-05T20:09:22.084Z,7.90
2022-11-05T20:11:52.398Z,7.80
2022-11-05T20:14:19.241Z,7.80
2022-11-05T20:16:46.396Z,7.80
2022-11-05T20:19:15.861Z,7.80
2022-11-05T20:21:42.664Z,7.70
2022-11-05T20:24:11.730Z,7.70
2022-11-05T20:26:39.024Z,7.60
2022-11-05T20:29:06.097Z,7.50
2022-11-05T20:31:32.927Z,7.50
2022-11-05T20:33:59.967Z,7.40
2022-11-05T20:36:27.236Z,7.40
2022-11-05T20:38:57.920Z,7.30
2022-11-05T20:41:26.155Z,7.20
2022-11-05T20:43:53.833Z,7.20
2022-11-05T20:46:27.128Z,7.10
2022-11-05T20:48:54.165Z,7.10
2022-11-05T20:51:24.217Z,7.00
2022-11-05T20:53:58.837Z,6.90
2022-11-05T20:56:31.525Z,6.90
2022-11-05T20:58:59.748Z,6.90
2022-11-05T21:01:29.236Z,6.80
2022-11-05T21:03:56.438Z,6.80
2022-11-05T21:06:23.837Z,6.80
2022-11-05T21:08:52.169Z,6.70
2022-11-05T21:11:20.002Z,6.70
2022-11-05T21:13:47.384Z,6.70
2022-11-05T21:16:18.188Z,6.60
2022-11-05T21:18:46.738Z,6.60
2022-11-05T21:21:16.839Z,6.50
2022-11-05T21:23:43.921Z,6.50
2022-11-05T21:26:12.867Z,6.40
2022-11-05T21:28:40.922Z,6.40
2022-11-05T21:31:08.857Z,6.30
2022-11-05T21:33:35.872Z,6.30
2022-11-05T21:36:08.185Z,6.20
2022-11-05T21:38:35.287Z,6.20
2022-11-05T21:41:03.548Z,6.10
2022-11-05T21:43:30.725Z,6.10
2022-11-05T21:46:01.388Z,6.10
2022-11-05T21:48:28.161Z,6.00
2022-11-05T21:51:13.899Z,6.00
2022-11-05T21:53:59.209Z,6.00
2022-11-05T21:56:45.894Z,6.00
2022-11-05T21:59:34.389Z,6.00
2022-11-05T22:02:06.705Z,6.00
2022-11-05T22:04:36.059Z,6.00
2022-11-05T22:07:22.439Z,5.90
2022-11-05T22:09:56.002Z,5.90
2022-11-05T22:12:32.349Z,5.90
2022-11-05T22:14:59.447Z,5.90
2022-11-05T22:17:33.012Z,5.80
2022-11-05T22:20:08.535Z,5.80
2022-11-05T22:22:42.744Z,5.80
2022-11-05T22:25:16.550Z,5.80
2022-11-05T22:27:50.022Z,5.80
2022-11-05T22:30:31.420Z,5.70
2022-11-05T22:33:05.062Z,5.70
2022-11-05T22:35:31.789Z,5.70
2022-11-05T22:37:58.508Z,5.60
2022-11-05T22:40:26.211Z,5.60
2022-11-05T22:42:53.008Z,5.60
2022-11-05T22:45:19.842Z,5.60
2022-11-05T22:47:46.600Z,5.60
2022-11-05T22:50:13.654Z,5.60
2022-11-05T22:52:40.353Z,5.60
2022-11-05T22:55:07.406Z,5.60
2022-11-05T22:57:34.176Z,5.60
2022-11-05T23:00:01.068Z,5.60
2022-11-05T23:02:28.045Z,5.60
2022-11-05T23:04:54.962Z,5.60
2022-11-05T23:07:40.512Z,5.60
2022-11-05T23:10:27.325Z,5.60
2022-11-05T23:12:55.296Z,5.60
2022-11-05T23:15:40.934Z,5.60
2022-11-05T23:18:27.995Z,5.50
2022-11-05T23:21:13.339Z,5.50
2022-11-05T23:23:58.827Z,5.50
2022-11-05T23:26:44.463Z,5.50
2022-11-05T23:29:11.283Z,5.50
2022-11-05T23:31:56.848Z,5.40
2022-11-05T23:34:23.626Z,5.40
2022-11-05T23:37:08.950Z,5.40
2022-11-05T23:39:41.225Z,5.30
2022-11-05T23:42:28.394Z,5.30
2022-11-05T23:45:14.836Z,5.20
2022-11-05T23:48:00.884Z,5.20
2022-11-05T23:50:27.901Z,5.20
2022-11-05T23:52:55.509Z,5.20
2022-11-05T23:55:23.237Z,5.20
2022-11-05T23:57:50.443Z,5.20
